Time;durP1;ratioP1;P1;durP2;ratioP2;P2;SDS_P1;SDS_P2;PMS_P1;PMS_P2;Temp;Humidity;BMP_temperature;BMP_pressure;BME280_temperature;BME280_humidity;BME280_pressure;Samples;Min_cycle;Max_cycle;Signal;HPM_P1;HPM_P2
2023/04/05 00:00:26;;;;;;;16.33;10.60;;;;;;;0.04;100.00;94129.13;5109512;28;20291;-80
2023/04/05 00:02:53;;;;;;;19.63;11.70;;;;;;;0.10;100.00;94132.78;5102776;28;20195;-79
2023/04/05 00:05:28;;;;;;;19.50;11.77;;;;;;;0.10;100.00;94107.25;5110621;28;20192;-79
2023/04/05 00:07:55;;;;;;;16.13;10.87;;;;;;;0.14;100.00;94121.28;5110515;28;20203;-79
2023/04/05 00:10:22;;;;;;;18.40;11.40;;;;;;;0.12;100.00;94113.75;5111060;28;20636;-81
2023/04/05 00:12:49;;;;;;;17.13;10.73;;;;;;;0.15;100.00;94122.84;5111756;28;20192;-82
2023/04/05 00:15:18;;;;;;;17.70;10.63;;;;;;;0.14;100.00;94116.16;5111728;28;20296;-84
2023/04/05 00:17:46;;;;;;;15.23;9.37;;;;;;;0.06;100.00;94109.31;5111750;28;20224;-83
2023/04/05 00:20:13;;;;;;;18.63;10.20;;;;;;;0.12;100.00;94113.75;5112006;28;20294;-82
2023/04/05 00:22:43;;;;;;;17.50;10.20;;;;;;;0.03;100.00;94119.09;5111550;28;20196;-83
2023/04/05 00:25:10;;;;;;;16.20;9.63;;;;;;;0.10;100.00;94125.13;5111859;28;20197;-83
2023/04/05 00:27:37;;;;;;;15.67;9.77;;;;;;;0.20;100.00;94120.59;5111536;28;20207;-81
2023/04/05 00:30:05;;;;;;;13.97;9.03;;;;;;;0.07;100.00;94113.47;5111632;28;20192;-81
2023/04/05 00:32:33;;;;;;;14.00;9.03;;;;;;;0.08;100.00;94116.84;5111552;28;20188;-81
2023/04/05 00:35:00;;;;;;;11.60;8.20;;;;;;;0.12;100.00;94125.72;5111454;28;20199;-81
2023/04/05 00:37:27;;;;;;;12.50;8.57;;;;;;;0.06;100.00;94118.75;5111353;28;20215;-81
2023/04/05 00:39:54;;;;;;;13.47;9.00;;;;;;;-0.03;100.00;94112.91;5114809;28;20232;-81
2023/04/05 00:42:20;;;;;;;13.40;9.17;;;;;;;0.00;100.00;94125.34;5115765;28;20216;-82
2023/04/05 00:44:47;;;;;;;12.37;8.00;;;;;;;0.05;100.00;94114.59;5116061;28;20192;-81
2023/04/05 00:47:14;;;;;;;14.17;9.03;;;;;;;0.12;100.00;94111.22;5115900;28;20204;-80
2023/04/05 00:49:42;;;;;;;11.90;8.07;;;;;;;0.12;100.00;94123.97;5116038;28;20204;-84
2023/04/05 00:52:09;;;;;;;11.63;7.53;;;;;;;0.09;100.00;94131.97;5116968;28;20657;-83
2023/04/05 00:54:38;;;;;;;11.97;7.90;;;;;;;0.02;100.00;94128.50;5115784;28;20204;-83
2023/04/05 00:57:05;;;;;;;11.50;7.17;;;;;;;0.04;100.00;94126.59;5115149;28;20295;-79
2023/04/05 00:59:32;;;;;;;10.67;7.70;;;;;;;0.03;100.00;94137.75;5114599;28;20223;-79
2023/04/05 01:02:03;;;;;;;14.43;7.93;;;;;;;0.14;100.00;94126.38;5114680;28;20188;-79
2023/04/05 01:04:32;;;;;;;10.63;7.33;;;;;;;0.26;100.00;94137.81;5114226;28;20735;-78
2023/04/05 01:07:07;;;;;;;12.67;7.53;;;;;;;0.29;100.00;94130.59;5114086;28;20190;-78
2023/04/05 01:09:45;;;;;;;8.50;6.20;;;;;;;0.24;100.00;94134.63;5113942;28;20198;-78
2023/04/05 01:12:17;;;;;;;9.77;6.67;;;;;;;0.21;100.00;94132.41;5113250;28;20188;-78
2023/04/05 01:14:49;;;;;;;9.07;6.37;;;;;;;0.19;100.00;94126.66;5111966;28;20192;-78
2023/04/05 01:17:23;;;;;;;9.13;6.27;;;;;;;0.13;100.00;94125.59;5113527;28;20303;-78
2023/04/05 01:19:52;;;;;;;9.93;6.57;;;;;;;0.06;100.00;94131.53;5113731;28;20188;-78
2023/04/05 01:22:52;;;;;;;9.70;6.43;;;;;;;0.07;100.00;94141.56;5110772;28;20189;-78
2023/04/05 01:25:47;;;;;;;9.17;6.33;;;;;;;0.00;100.00;94133.78;5113631;28;20189;-78
2023/04/05 01:28:35;;;;;;;8.80;5.73;;;;;;;0.13;100.00;94142.66;5113122;28;20196;-78
2023/04/05 01:31:08;;;;;;;9.00;6.20;;;;;;;0.14;100.00;94131.50;5110756;28;20181;-79
2023/04/05 01:33:42;;;;;;;9.17;6.03;;;;;;;0.19;100.00;94142.00;5113687;28;20289;-79
2023/04/05 01:36:17;;;;;;;9.37;6.03;;;;;;;0.20;100.00;94143.59;5113795;28;20177;-79
2023/04/05 01:38:48;;;;;;;8.07;5.60;;;;;;;0.25;100.00;94151.53;5114208;28;20193;-79
2023/04/05 01:41:15;;;;;;;7.00;5.23;;;;;;;0.21;100.00;94157.94;5114004;28;20192;-79
2023/04/05 01:43:42;;;;;;;7.37;5.37;;;;;;;0.25;100.00;94143.88;5111060;28;20195;-79
2023/04/05 01:46:10;;;;;;;8.93;5.77;;;;;;;0.23;100.00;94146.59;5113971;28;20184;-79
2023/04/05 01:48:37;;;;;;;9.80;6.50;;;;;;;0.25;100.00;94151.53;5113591;28;20213;-79
2023/04/05 01:51:04;;;;;;;8.97;6.00;;;;;;;0.17;100.00;94141.38;5112506;28;20189;-80
2023/04/05 01:53:31;;;;;;;11.93;5.80;;;;;;;0.07;100.00;94145.88;5114028;28;20239;-80
2023/04/05 01:56:01;;;;;;;7.67;5.70;;;;;;;0.03;100.00;94149.75;5113745;28;20207;-80
2023/04/05 01:58:28;;;;;;;7.73;6.00;;;;;;;-0.01;100.00;94147.53;5113439;28;20209;-80
2023/04/05 02:00:55;;;;;;;7.83;5.83;;;;;;;0.10;100.00;94145.53;5114010;28;20195;-79
2023/04/05 02:03:23;;;;;;;7.83;6.00;;;;;;;0.18;100.00;94148.84;5111332;28;20226;-81
2023/04/05 02:05:51;;;;;;;11.13;7.93;;;;;;;0.25;100.00;94143.88;5114017;28;20196;-80
2023/04/05 02:08:18;;;;;;;11.70;8.63;;;;;;;0.19;100.00;94152.22;5113871;28;20188;-80
2023/04/05 02:10:46;;;;;;;8.97;6.73;;;;;;;0.14;100.00;94147.63;5113838;28;20192;-81
2023/04/05 02:13:13;;;;;;;8.40;6.30;;;;;;;0.08;100.00;94153.38;5113303;28;20216;-80
2023/04/05 02:15:40;;;;;;;9.77;6.57;;;;;;;0.15;100.00;94154.28;5113115;28;20189;-80
2023/04/05 02:18:08;;;;;;;8.70;6.07;;;;;;;0.20;100.00;94153.81;5113367;28;20218;-81
2023/04/05 02:20:36;;;;;;;6.07;5.07;;;;;;;0.23;100.00;94153.47;5112880;28;20188;-80
2023/04/05 02:23:03;;;;;;;9.50;5.63;;;;;;;0.21;100.00;94151.06;5101550;28;20188;-80
2023/04/05 02:25:29;;;;;;;6.93;5.53;;;;;;;0.24;100.00;94155.84;5113027;28;20207;-80
2023/04/05 02:27:56;;;;;;;8.33;6.20;;;;;;;0.20;100.00;94138.50;5113660;28;20185;-83
2023/04/05 02:30:23;;;;;;;8.30;6.10;;;;;;;0.23;100.00;94151.69;5113588;28;20192;-84
2023/04/05 02:32:50;;;;;;;9.07;6.30;;;;;;;0.30;100.00;94157.75;5113424;28;20648;-82
2023/04/05 02:35:17;;;;;;;8.03;6.00;;;;;;;0.22;100.00;94155.22;5113229;28;20581;-82
2023/04/05 02:37:45;;;;;;;8.47;6.40;;;;;;;0.21;100.00;94150.28;5113435;28;20228;-82
2023/04/05 02:40:14;;;;;;;9.47;6.50;;;;;;;0.14;100.00;94139.16;5112879;28;20199;-82
2023/04/05 02:42:41;;;;;;;9.43;7.00;;;;;;;0.28;100.00;94156.31;5112717;28;20250;-82
2023/04/05 02:45:08;;;;;;;11.90;7.70;;;;;;;0.21;100.00;94142.59;5112593;28;20196;-82
2023/04/05 02:47:35;;;;;;;9.77;7.13;;;;;;;0.27;100.00;94140.19;5112387;28;20251;-82
2023/04/05 02:50:02;;;;;;;9.57;6.40;;;;;;;0.34;100.00;94147.97;5092640;28;20667;-82
2023/04/05 02:52:31;;;;;;;7.83;5.67;;;;;;;0.35;100.00;94152.09;5105652;28;20261;-82
2023/04/05 02:54:59;;;;;;;8.03;6.07;;;;;;;0.30;100.00;94146.72;5113231;28;20213;-82
2023/04/05 02:57:27;;;;;;;7.77;6.10;;;;;;;0.23;100.00;94141.47;5112999;28;20323;-82
2023/04/05 02:59:53;;;;;;;8.93;6.40;;;;;;;0.26;100.00;94140.38;5112703;28;20280;-81
2023/04/05 03:02:21;;;;;;;9.37;6.47;;;;;;;0.17;100.00;94128.59;5112378;28;20196;-81
2023/04/05 03:04:48;;;;;;;8.20;6.03;;;;;;;0.29;100.00;94148.47;5112506;28;20196;-82
2023/04/05 03:07:17;;;;;;;8.47;6.30;;;;;;;0.21;100.00;94137.50;5112563;28;20675;-82
2023/04/05 03:09:45;;;;;;;8.93;6.33;;;;;;;0.23;100.00;94151.69;5093269;28;20703;-81
2023/04/05 03:12:13;;;;;;;7.53;5.90;;;;;;;0.20;100.00;94128.25;5112353;28;20197;-81
2023/04/05 03:14:40;;;;;;;8.90;6.23;;;;;;;0.28;100.00;94148.66;5112626;28;20888;-83
2023/04/05 03:17:07;;;;;;;11.97;7.37;;;;;;;0.26;100.00;94142.94;5112558;28;20249;-83
2023/04/05 03:19:34;;;;;;;10.87;7.67;;;;;;;0.27;100.00;94137.63;5112118;28;20283;-82
2023/04/05 03:22:01;;;;;;;10.83;7.57;;;;;;;0.32;100.00;94139.66;5112099;28;20269;-83
2023/04/05 03:24:28;;;;;;;9.53;6.20;;;;;;;0.16;100.00;94139.78;5112984;27;20682;-81
2023/04/05 03:26:55;;;;;;;8.17;5.93;;;;;;;0.10;100.00;94146.34;5112058;28;20191;-81
2023/04/05 03:29:23;;;;;;;8.17;6.07;;;;;;;0.16;100.00;94150.00;5111666;28;20581;-83
2023/04/05 03:31:50;;;;;;;8.00;6.30;;;;;;;0.00;100.00;94128.66;5110817;28;20195;-82
2023/04/05 03:34:17;;;;;;;8.00;5.97;;;;;;;0.02;100.00;94140.47;5111697;28;20231;-82
2023/04/05 03:36:44;;;;;;;8.17;6.33;;;;;;;0.01;100.00;94144.78;5111972;28;20190;-82
2023/04/05 03:39:13;;;;;;;9.07;6.37;;;;;;;0.15;100.00;94145.84;5098693;28;20216;-82
2023/04/05 03:41:40;;;;;;;10.03;7.17;;;;;;;0.18;100.00;94155.72;5111623;28;20213;-83
2023/04/05 03:44:08;;;;;;;8.50;6.10;;;;;;;0.15;100.00;94141.53;5112170;28;20554;-83
2023/04/05 03:46:36;;;;;;;7.17;5.83;;;;;;;0.28;100.00;94148.66;5111458;28;20193;-83
2023/04/05 03:49:03;;;;;;;8.00;5.70;;;;;;;0.20;100.00;94156.38;5095054;28;20319;-82
2023/04/05 03:51:31;;;;;;;8.07;5.67;;;;;;;0.19;100.00;94157.31;5112978;28;20184;-83
2023/04/05 03:53:58;;;;;;;7.30;5.73;;;;;;;0.27;100.00;94155.50;5112357;28;20257;-84
2023/04/05 03:56:26;;;;;;;7.73;6.00;;;;;;;0.35;100.00;94163.13;5111959;28;20203;-84
2023/04/05 03:58:53;;;;;;;7.20;5.67;;;;;;;0.24;100.00;94167.81;5111763;28;20215;-83
2023/04/05 04:01:20;;;;;;;7.03;5.47;;;;;;;0.19;100.00;94152.22;5111660;28;20219;-83
2023/04/05 04:03:48;;;;;;;8.00;6.30;;;;;;;0.22;100.00;94164.66;5111657;28;20603;-83
2023/04/05 04:06:17;;;;;;;8.60;6.43;;;;;;;0.32;100.00;94166.03;5111291;28;20190;-85
2023/04/05 04:08:44;;;;;;;9.00;6.40;;;;;;;0.25;100.00;94177.09;5097334;28;20186;-84
2023/04/05 04:11:10;;;;;;;8.97;6.60;;;;;;;0.23;100.00;94173.91;5111334;28;20203;-84
2023/04/05 04:13:37;;;;;;;10.03;6.87;;;;;;;0.22;100.00;94170.56;5110145;28;20201;-84
2023/04/05 04:16:04;;;;;;;8.47;6.60;;;;;;;0.08;100.00;94147.47;5112019;28;20194;-88
2023/04/05 04:18:32;;;;;;;9.50;6.97;;;;;;;0.22;100.00;94165.44;5111333;28;20309;-83
2023/04/05 04:21:05;;;;;;;10.30;7.13;;;;;;;0.24;100.00;94178.03;5111944;28;20203;-84
2023/04/05 04:23:32;;;;;;;10.33;6.47;;;;;;;0.23;100.00;94173.91;5111793;28;20189;-83
2023/04/05 04:26:01;;;;;;;9.87;6.80;;;;;;;0.18;100.00;94165.94;5111629;28;20196;-83
2023/04/05 04:28:29;;;;;;;11.97;7.13;;;;;;;0.09;100.00;94175.38;5111281;28;20873;-83
2023/04/05 04:30:56;;;;;;;9.87;6.73;;;;;;;0.14;100.00;94178.25;5112268;28;20189;-84
2023/04/05 04:33:23;;;;;;;9.23;7.10;;;;;;;0.15;100.00;94181.59;5112075;28;20606;-82
2023/04/05 04:35:53;;;;;;;11.83;7.37;;;;;;;0.12;100.00;94177.63;5111552;28;20207;-83
2023/04/05 04:38:24;;;;;;;13.93;7.87;;;;;;;0.21;100.00;94183.47;5111095;28;20194;-83
2023/04/05 04:40:52;;;;;;;10.37;6.97;;;;;;;0.13;100.00;94174.09;5111274;28;20220;-83
2023/04/05 04:43:26;;;;;;;8.90;6.73;;;;;;;0.27;100.00;94172.59;5111053;28;20193;-83
2023/04/05 04:45:53;;;;;;;10.80;7.17;;;;;;;0.34;100.00;94183.75;5110963;28;20192;-83
2023/04/05 04:48:20;;;;;;;8.77;6.17;;;;;;;0.30;100.00;94185.84;5110597;28;20714;-84
2023/04/05 04:50:51;;;;;;;9.70;6.57;;;;;;;0.12;100.00;94159.72;5111163;28;20200;-85
2023/04/05 04:53:17;;;;;;;11.67;7.47;;;;;;;0.33;100.00;94189.81;5111120;28;20681;-82
2023/04/05 04:55:48;;;;;;;10.63;6.83;;;;;;;0.31;100.00;94177.22;5111183;28;20193;-83
2023/04/05 04:58:17;;;;;;;8.50;5.60;;;;;;;0.38;100.00;94192.66;5106056;28;20220;-83
2023/04/05 05:00:44;;;;;;;6.17;4.80;;;;;;;0.33;100.00;94194.94;5099325;28;20190;-82
2023/04/05 05:03:11;;;;;;;5.77;4.50;;;;;;;0.19;100.00;94182.84;5108258;28;20228;-81
2023/04/05 05:05:42;;;;;;;6.03;4.37;;;;;;;0.22;100.00;94190.19;5110590;28;20295;-82
2023/04/05 05:08:09;;;;;;;6.20;4.70;;;;;;;0.27;100.00;94187.94;5106294;28;20197;-80
2023/04/05 05:10:36;;;;;;;5.67;4.00;;;;;;;0.23;100.00;94189.25;5109200;28;20200;-79
2023/04/05 05:13:04;;;;;;;6.23;4.43;;;;;;;0.20;100.00;94185.25;5105797;28;20204;-78
2023/04/05 05:15:31;;;;;;;3.93;3.53;;;;;;;0.26;100.00;94196.56;5102660;28;20701;-79
2023/04/05 05:17:58;;;;;;;7.37;4.63;;;;;;;0.31;100.00;94195.09;5110091;28;20219;-81
2023/04/05 05:20:27;;;;;;;8.97;5.57;;;;;;;0.39;100.00;94189.16;5110200;28;20258;-83
2023/04/05 05:22:54;;;;;;;9.47;6.57;;;;;;;0.46;100.00;94195.19;5107661;28;20220;-80
2023/04/05 05:25:21;;;;;;;8.37;5.67;;;;;;;0.36;100.00;94182.63;5109276;28;20200;-80
2023/04/05 05:27:48;;;;;;;5.37;4.43;;;;;;;0.31;100.00;94201.97;5112858;28;20629;-80
2023/04/05 05:30:17;;;;;;;5.00;3.87;;;;;;;0.28;100.00;94199.75;5115288;27;20196;-79
2023/04/05 05:32:43;;;;;;;7.07;4.67;;;;;;;0.35;100.00;94198.09;5113334;27;20673;-80
2023/04/05 05:35:10;;;;;;;8.33;4.03;;;;;;;0.27;100.00;94178.50;5113383;28;20190;-79
2023/04/05 05:37:37;;;;;;;5.67;4.53;;;;;;;0.28;100.00;94192.09;5113208;28;20194;-81
2023/04/05 05:40:05;;;;;;;5.43;3.97;;;;;;;0.32;100.00;94201.78;5113737;28;20195;-81
2023/04/05 05:42:32;;;;;;;5.10;4.17;;;;;;;0.34;100.00;94204.19;5113277;28;20211;-81
2023/04/05 05:45:02;;;;;;;6.13;4.30;;;;;;;0.36;100.00;94197.16;5113870;28;20195;-81
2023/04/05 05:47:31;;;;;;;6.73;4.40;;;;;;;0.46;100.00;94195.97;5113481;28;20191;-80
2023/04/05 05:49:58;;;;;;;7.30;4.90;;;;;;;0.54;100.00;94198.50;5113116;28;20647;-80
2023/04/05 05:52:24;;;;;;;4.80;3.70;;;;;;;0.55;100.00;94192.41;5110476;28;20537;-80
2023/04/05 05:54:51;;;;;;;5.03;3.83;;;;;;;0.67;100.00;94195.38;5112063;28;20662;-80
2023/04/05 05:57:18;;;;;;;15.53;7.73;;;;;;;0.72;100.00;94182.09;5112831;28;20193;-79
2023/04/05 05:59:45;;;;;;;10.93;5.80;;;;;;;0.83;100.00;94195.28;5110887;28;20217;-82
2023/04/05 06:02:12;;;;;;;8.80;5.17;;;;;;;0.92;100.00;94199.38;5113071;28;20192;-80
2023/04/05 06:04:40;;;;;;;5.43;4.17;;;;;;;1.05;100.00;94194.47;5107607;28;20190;-80
2023/04/05 06:07:08;;;;;;;8.67;5.07;;;;;;;0.97;100.00;94199.66;5113320;28;20261;-80
2023/04/05 06:09:35;;;;;;;7.77;4.83;;;;;;;1.03;100.00;94198.19;5113345;28;20188;-80
2023/04/05 06:12:02;;;;;;;6.13;4.47;;;;;;;1.07;100.00;94204.53;5112627;28;20217;-80
2023/04/05 06:14:29;;;;;;;6.33;4.27;;;;;;;0.94;100.00;94178.75;5102491;28;20193;-82
2023/04/05 06:16:56;;;;;;;6.23;4.63;;;;;;;1.27;100.00;94199.75;5113850;28;20215;-82
2023/04/05 06:19:23;;;;;;;6.27;4.53;;;;;;;1.38;100.00;94212.13;5107784;28;20210;-82
2023/04/05 06:21:51;;;;;;;4.83;3.80;;;;;;;1.44;100.00;94216.56;5113738;28;20552;-83
2023/04/05 06:24:18;;;;;;;3.50;3.17;;;;;;;1.24;100.00;94213.66;5112825;28;20658;-81
2023/04/05 06:26:44;;;;;;;5.23;3.73;;;;;;;1.31;100.00;94213.78;5113196;28;20545;-81
2023/04/05 06:29:11;;;;;;;3.87;3.30;;;;;;;1.42;100.00;94216.72;5112171;28;20195;-80
2023/04/05 06:31:40;;;;;;;4.33;3.87;;;;;;;1.48;100.00;94205.78;5112554;28;20681;-80
2023/04/05 06:34:07;;;;;;;3.73;3.10;;;;;;;1.41;100.00;94212.59;5110890;28;20564;-80
2023/04/05 06:36:33;;;;;;;3.33;2.90;;;;;;;1.46;100.00;94222.31;5112470;28;20203;-80
2023/04/05 06:39:02;;;;;;;5.67;3.77;;;;;;;1.51;100.00;94213.13;5109617;28;20223;-81
2023/04/05 06:41:29;;;;;;;5.53;4.17;;;;;;;1.63;100.00;94224.53;5110286;28;20197;-82
2023/04/05 06:43:57;;;;;;;5.20;3.80;;;;;;;1.55;100.00;94208.47;5111353;28;20272;-80
2023/04/05 06:46:24;;;;;;;6.43;3.90;;;;;;;1.71;100.00;94228.78;5112003;28;20188;-80
2023/04/05 06:48:52;;;;;;;4.27;3.70;;;;;;;1.70;100.00;94234.91;5111983;28;20215;-79
2023/04/05 06:51:20;;;;;;;5.83;3.70;;;;;;;1.75;100.00;94232.59;5112511;28;20202;-83
2023/04/05 06:53:47;;;;;;;5.53;3.67;;;;;;;1.79;100.00;94241.50;5109642;28;20593;-82
2023/04/05 06:56:15;;;;;;;3.87;3.03;;;;;;;1.71;100.00;94236.47;5111501;28;20181;-82
2023/04/05 06:58:42;;;;;;;4.47;3.40;;;;;;;1.86;100.00;94247.53;5112062;28;20709;-82
2023/04/05 07:01:10;;;;;;;7.57;4.90;;;;;;;1.52;100.00;94207.06;5112232;28;20214;-84
2023/04/05 07:03:37;;;;;;;5.50;3.53;;;;;;;1.71;100.00;94256.94;5105089;27;20278;-81
2023/04/05 07:06:09;;;;;;;7.67;4.50;;;;;;;1.82;100.00;94253.97;5094650;28;20787;-83
2023/04/05 07:08:37;;;;;;;9.03;4.77;;;;;;;1.84;100.00;94251.25;5112458;28;20191;-84
2023/04/05 07:11:04;;;;;;;9.13;5.60;;;;;;;2.05;100.00;94271.88;5112084;28;20617;-83
2023/04/05 07:13:33;;;;;;;9.43;5.00;;;;;;;2.11;100.00;94266.00;5111651;28;20223;-84
2023/04/05 07:16:00;;;;;;;7.83;5.00;;;;;;;2.04;100.00;94242.88;5112326;28;20276;-83
2023/04/05 07:18:28;;;;;;;6.33;4.53;;;;;;;2.23;100.00;94272.28;5111548;28;20322;-83
2023/04/05 07:20:58;;;;;;;6.33;4.20;;;;;;;2.08;100.00;94262.03;5111380;28;20560;-83
2023/04/05 07:23:26;;;;;;;5.53;4.20;;;;;;;2.19;100.00;94255.69;5111485;28;20191;-82
2023/04/05 07:25:53;;;;;;;3.30;2.83;;;;;;;2.17;100.00;94276.38;5112296;28;20256;-81
2023/04/05 07:28:20;;;;;;;6.20;3.90;;;;;;;2.10;100.00;94275.50;5112293;28;20277;-82
2023/04/05 07:30:49;;;;;;;3.80;3.37;;;;;;;2.08;100.00;94281.72;5102866;28;20195;-81
2023/04/05 07:33:16;;;;;;;5.43;4.20;;;;;;;2.09;100.00;94273.09;5104360;28;20271;-82
2023/04/05 07:35:43;;;;;;;8.60;5.47;;;;;;;2.10;100.00;94275.50;5109464;28;20236;-81
2023/04/05 07:38:10;;;;;;;7.80;5.63;;;;;;;2.18;100.00;94274.59;5112383;28;20199;-82
2023/04/05 07:40:37;;;;;;;9.67;5.70;;;;;;;2.19;100.00;94281.31;5112018;28;20733;-80
2023/04/05 07:43:04;;;;;;;8.87;5.10;;;;;;;2.27;100.00;94274.34;5106923;28;20208;-80
2023/04/05 07:45:30;;;;;;;5.67;4.03;;;;;;;2.28;98.91;94293.84;5107552;28;20200;-81
2023/04/05 07:47:58;;;;;;;4.80;3.30;;;;;;;2.23;99.13;94288.47;5112063;28;20231;-82
2023/04/05 07:50:27;;;;;;;7.43;4.07;;;;;;;2.15;99.62;94285.19;5112195;28;20237;-81
2023/04/05 07:52:54;;;;;;;4.67;3.53;;;;;;;2.11;98.98;94297.56;5109198;28;20198;-81
2023/04/05 07:55:21;;;;;;;4.50;3.57;;;;;;;2.08;99.59;94304.78;5111552;28;20286;-80
2023/04/05 07:57:47;;;;;;;4.80;3.13;;;;;;;2.09;98.90;94303.84;5112176;28;20187;-80
2023/04/05 08:00:15;;;;;;;3.07;2.77;;;;;;;1.99;99.67;94305.88;5113176;28;20220;-81
2023/04/05 08:02:42;;;;;;;4.53;3.70;;;;;;;1.92;100.00;94310.88;5111208;28;20199;-82
2023/04/05 08:05:10;;;;;;;4.53;3.80;;;;;;;1.89;100.00;94308.66;5111067;28;20719;-79
2023/04/05 08:07:37;;;;;;;4.60;3.00;;;;;;;1.81;100.00;94302.81;5109951;28;20196;-81
2023/04/05 08:10:10;;;;;;;6.20;4.57;;;;;;;1.79;100.00;94309.88;5112069;28;20271;-83
2023/04/05 08:12:38;;;;;;;6.80;4.70;;;;;;;1.75;100.00;94306.88;5106655;28;20185;-85
2023/04/05 08:15:12;;;;;;;8.60;4.80;;;;;;;1.67;100.00;94284.66;5107034;28;20194;-85
2023/04/05 08:17:39;;;;;;;4.60;3.50;;;;;;;1.65;100.00;94273.81;5110618;28;20210;-84
2023/04/05 08:20:07;;;;;;;7.47;4.73;;;;;;;1.98;100.00;94320.44;5109704;28;20211;-84
2023/04/05 08:22:35;;;;;;;6.07;4.07;;;;;;;2.07;100.00;94316.03;5109376;28;20188;-79
2023/04/05 08:25:02;;;;;;;5.53;4.40;;;;;;;1.84;100.00;94305.03;5110695;28;20199;-79
2023/04/05 08:27:29;;;;;;;8.80;5.23;;;;;;;1.95;100.00;94318.22;5110851;28;20222;-79
2023/04/05 08:29:55;;;;;;;6.97;4.77;;;;;;;1.97;100.00;94315.47;5110664;28;20198;-79
2023/04/05 08:32:22;;;;;;;5.77;4.40;;;;;;;1.99;100.00;94328.94;5106829;28;20649;-79
2023/04/05 08:34:49;;;;;;;7.03;4.40;;;;;;;2.05;100.00;94320.53;5111491;28;20252;-80
2023/04/05 08:37:16;;;;;;;5.00;3.90;;;;;;;2.05;100.00;94321.31;5110589;28;20648;-79
2023/04/05 08:43:34;;;;;;;21.33;11.70;;;;;;;2.34;100.00;94328.25;5071466;28;20202;-81
2023/04/05 08:46:02;;;;;;;18.17;11.77;;;;;;;2.07;100.00;94303.22;5108058;28;20328;-82
2023/04/05 08:48:32;;;;;;;5.77;4.57;;;;;;;2.03;100.00;94328.38;5110798;28;20713;-80
2023/04/05 08:50:59;;;;;;;5.57;3.97;;;;;;;2.08;100.00;94331.22;5110392;28;20196;-80
2023/04/05 08:53:33;;;;;;;4.33;3.80;;;;;;;1.94;100.00;94316.63;5109522;28;20199;-81
2023/04/05 08:56:00;;;;;;;5.07;4.17;;;;;;;1.97;100.00;94334.22;5106193;28;20201;-80
2023/04/05 08:58:32;;;;;;;8.53;5.40;;;;;;;1.93;100.00;94330.41;5110649;28;20204;-81
2023/04/05 09:01:01;;;;;;;8.00;5.10;;;;;;;2.09;100.00;94335.38;5113149;28;20199;-78
2023/04/05 09:03:35;;;;;;;8.50;5.90;;;;;;;2.20;100.00;94336.72;5112440;28;20279;-82
2023/04/05 09:06:06;;;;;;;10.43;6.33;;;;;;;2.18;100.00;94349.72;5114353;28;20268;-80
2023/04/05 09:08:33;;;;;;;13.30;7.40;;;;;;;2.24;100.00;94343.91;5114552;28;20191;-80
2023/04/05 09:11:00;;;;;;;8.53;5.23;;;;;;;2.24;100.00;94351.59;5114025;28;20195;-81
2023/04/05 09:13:27;;;;;;;8.13;5.50;;;;;;;2.32;100.00;94355.84;5109959;28;20188;-80
2023/04/05 09:15:56;;;;;;;12.07;5.80;;;;;;;2.37;100.00;94363.78;5114412;28;20217;-79
2023/04/05 09:18:23;;;;;;;9.20;5.87;;;;;;;2.43;99.60;94350.28;5114606;28;20571;-80
2023/04/05 09:20:50;;;;;;;8.13;5.67;;;;;;;2.52;99.78;94356.91;5114412;28;20212;-81
2023/04/05 09:23:17;;;;;;;5.53;4.10;;;;;;;2.51;100.00;94370.69;5112180;28;20191;-81
2023/04/05 09:25:45;;;;;;;6.10;3.90;;;;;;;2.54;100.00;94367.78;5111767;28;20188;-80
2023/04/05 09:28:12;;;;;;;5.70;4.00;;;;;;;2.64;100.00;94354.69;5114612;28;20653;-81
2023/04/05 09:30:39;;;;;;;3.50;3.20;;;;;;;2.68;99.59;94350.81;5114550;28;20184;-81
2023/04/05 09:33:09;;;;;;;5.70;3.73;;;;;;;2.84;99.57;94348.06;5111400;28;20274;-80
2023/04/05 09:35:36;;;;;;;5.67;3.97;;;;;;;2.88;98.19;94345.94;5107316;28;20224;-81
2023/04/05 09:38:05;;;;;;;7.10;5.10;;;;;;;2.97;97.23;94345.69;5114129;28;20554;-81
2023/04/05 09:40:42;;;;;;;9.23;5.37;;;;;;;2.98;96.94;94346.44;5114266;28;20314;-81
2023/04/05 09:43:09;;;;;;;6.30;5.00;;;;;;;3.08;96.33;94352.91;5104936;28;20204;-81
2023/04/05 09:45:40;;;;;;;5.77;4.77;;;;;;;3.10;96.25;94345.81;5114257;28;20269;-81
2023/04/05 09:48:09;;;;;;;6.43;4.70;;;;;;;3.15;96.35;94346.06;5113889;28;20220;-80
2023/04/05 09:50:37;;;;;;;7.00;5.00;;;;;;;3.28;95.10;94351.38;5113425;28;20248;-80
2023/04/05 09:53:28;;;;;;;5.63;4.40;;;;;;;3.32;94.20;94344.88;5108626;28;20276;-80
2023/04/05 09:56:09;;;;;;;7.20;4.90;;;;;;;3.24;92.35;94341.63;5111322;28;20238;-83
2023/04/05 09:58:36;;;;;;;7.73;5.27;;;;;;;3.18;92.15;94345.72;5109966;28;20222;-83
2023/04/05 10:01:04;;;;;;;7.63;5.33;;;;;;;3.19;92.53;94356.78;5110010;28;20670;-82
2023/04/05 10:03:46;;;;;;;7.53;5.57;;;;;;;3.12;92.97;94354.13;5112999;28;20808;-82
2023/04/05 10:06:14;;;;;;;8.43;6.10;;;;;;;3.00;91.73;94347.09;5113957;28;20192;-83
2023/04/05 10:08:41;;;;;;;7.70;5.67;;;;;;;2.90;91.84;94349.91;5114129;28;20559;-83
2023/04/05 10:11:09;;;;;;;10.00;6.80;;;;;;;2.88;91.66;94349.31;5112767;28;20192;-84
2023/04/05 10:13:37;;;;;;;9.80;6.67;;;;;;;3.01;91.10;94353.78;5110537;28;20227;-83
2023/04/05 10:16:09;;;;;;;9.77;6.93;;;;;;;2.88;90.24;94346.75;5114273;28;20188;-83
2023/04/05 10:18:45;;;;;;;9.10;5.63;;;;;;;2.70;90.10;94357.38;5114022;27;20184;-82
2023/04/05 10:21:18;;;;;;;8.73;6.10;;;;;;;2.72;90.45;94357.97;5103731;28;20199;-83
2023/04/05 10:23:47;;;;;;;10.17;6.47;;;;;;;2.89;90.32;94360.38;5113551;28;20211;-84
2023/04/05 10:26:20;;;;;;;11.30;6.87;;;;;;;2.99;90.51;94351.41;5115241;28;20211;-85
2023/04/05 10:28:52;;;;;;;10.67;6.17;;;;;;;3.34;89.36;94347.28;5114699;28;20551;-82
2023/04/05 10:31:25;;;;;;;9.93;6.97;;;;;;;3.54;88.88;94360.31;5113456;28;20565;-82
2023/04/05 10:33:59;;;;;;;10.20;6.40;;;;;;;3.68;86.77;94349.19;5112705;28;20227;-82
2023/04/05 10:36:38;;;;;;;10.47;6.43;;;;;;;3.88;86.05;94358.69;5113356;28;20227;-83
2023/04/05 10:39:13;;;;;;;9.70;7.33;;;;;;;4.18;86.00;94359.34;5105152;28;20195;-83
2023/04/05 10:41:48;;;;;;;8.60;6.40;;;;;;;4.53;84.44;94360.94;5113620;28;20190;-82
2023/04/05 10:44:15;;;;;;;9.33;6.30;;;;;;;4.53;83.72;94355.03;5103547;28;20195;-80
2023/04/05 10:46:46;;;;;;;7.57;5.70;;;;;;;4.78;83.43;94368.25;5111114;28;20189;-80
2023/04/05 10:49:29;;;;;;;7.13;5.63;;;;;;;4.89;83.39;94357.41;5109920;28;20224;-79
2023/04/05 10:51:56;;;;;;;9.57;6.07;;;;;;;4.73;82.91;94355.16;5105925;28;20199;-80
2023/04/05 10:54:23;;;;;;;7.93;5.90;;;;;;;4.67;82.61;94363.63;5107764;28;20208;-81
2023/04/05 10:56:51;;;;;;;9.07;6.30;;;;;;;4.73;82.94;94386.03;5113074;28;20665;-81
2023/04/05 10:59:18;;;;;;;6.93;4.80;;;;;;;4.60;81.90;94371.31;5113416;28;20216;-81
2023/04/05 11:01:47;;;;;;;8.43;6.00;;;;;;;4.29;82.83;94361.41;5092575;28;20189;-80
2023/04/05 11:04:16;;;;;;;10.17;7.07;;;;;;;4.27;84.62;94370.28;5109860;27;20211;-81
2023/04/05 11:06:46;;;;;;;9.40;6.20;;;;;;;4.32;85.16;94368.75;5112517;28;20228;-82
2023/04/05 11:09:16;;;;;;;7.07;5.27;;;;;;;4.53;83.88;94368.69;5112510;28;20200;-81
2023/04/05 11:11:45;;;;;;;8.37;5.90;;;;;;;4.70;82.68;94370.97;5110238;28;20558;-81
2023/04/05 11:14:21;;;;;;;8.13;6.00;;;;;;;4.97;81.60;94372.69;5105364;28;20184;-80
2023/04/05 11:16:52;;;;;;;9.00;6.10;;;;;;;4.82;80.28;94384.91;5109685;28;20214;-80
2023/04/05 11:19:20;;;;;;;12.00;6.60;;;;;;;4.88;80.84;94373.81;5111087;28;20236;-80
2023/04/05 11:21:47;;;;;;;6.47;5.40;;;;;;;4.54;81.98;94382.34;5111686;28;20585;-81
2023/04/05 11:24:17;;;;;;;7.20;5.63;;;;;;;4.39;81.62;94343.03;5112508;28;20204;-82
2023/04/05 11:26:56;;;;;;;8.83;6.07;;;;;;;4.58;82.67;94373.28;5113188;28;20261;-82
2023/04/05 11:29:49;;;;;;;6.90;5.30;;;;;;;4.58;83.05;94370.69;5112506;28;20190;-81
2023/04/05 11:32:17;;;;;;;7.50;5.70;;;;;;;4.18;83.11;94313.06;5120399;27;20241;-82
2023/04/05 11:35:04;;;;;;;8.20;6.10;;;;;;;4.62;82.16;94345.41;5107313;28;20281;-83
2023/04/05 11:38:08;;;;;;;8.83;6.53;;;;;;;4.17;81.51;94295.22;5107098;28;20195;-84
2023/04/05 11:40:39;;;;;;;8.37;6.33;;;;;;;4.63;81.51;94370.94;5029933;28;20219;-82
2023/04/05 11:43:09;;;;;;;14.87;6.73;;;;;;;4.33;82.10;94282.09;5031413;28;20199;-82
2023/04/05 11:45:40;;;;;;;11.27;6.50;;;;;;;4.92;80.26;94368.13;5074556;28;20668;-81